This is the latest recevied weather packets stored in our database for station/object XW7RMR. If no packets are shown the sender has not sent any weather packets the latest 10 day(s).
| Time | Temp. | Humidity | Pressure | Rain* | Wind** | Luminosity | Snow |
|---|---|---|---|---|---|---|---|
| 1777507676 | 22.22° C | 38% | 1018.8 hPa | 0 mm | - | 411 W/m² | - |
| 1777507374 | 21.11° C | 39% | 1018.9 hPa | 0 mm | - | 427 W/m² | - |
| 1777507071 | 21.11° C | 39% | 1018.9 hPa | 0 mm | - | 443 W/m² | - |
| 1777506769 | 20.56° C | 40% | 1019 hPa | 0 mm | - | 458 W/m² | - |
| 1777506465 | 22.22° C | 38% | 1019 hPa | 0 mm | - | 472 W/m² | - |
| 1777506161 | 21.11° C | 39% | 1019.2 hPa | 0 mm | - | 487 W/m² | - |
| 1777505857 | 21.11° C | 40% | 1019.2 hPa | 0 mm | - | 503 W/m² | - |
| 1777505553 | 21.11° C | 42% | 1019.1 hPa | 0 mm | - | 515 W/m² | - |
| 1777505250 | 21.67° C | 41% | 1019.3 hPa | 0 mm | - | 530 W/m² | - |
| 1777504947 | 22.22° C | 39% | 1019.3 hPa | 0 mm | - | 545 W/m² | - |
| 1777504644 | 22.22° C | 41% | 1019.5 hPa | 0 mm | - | 560 W/m² | - |
| 1777504341 | 21.67° C | 40% | 1019.5 hPa | 0 mm | - | 572 W/m² | - |
| 1777504035 | 22.22° C | 40% | 1019.6 hPa | 0 mm | - | 584 W/m² | - |
| 1777503733 | 21.67° C | 41% | 1019.7 hPa | 0 mm | - | 597 W/m² | - |
| 1777503429 | 20.56° C | 44% | 1019.7 hPa | 0 mm | - | 608 W/m² | - |
| 1777503125 | 20.56° C | 44% | 1019.9 hPa | 0 mm | - | 622 W/m² | - |
| 1777502822 | 20° C | 44% | 1020 hPa | 0 mm | - | 633 W/m² | - |
| 1777502519 | 20.56° C | 43% | 1020 hPa | 0 mm | - | 644 W/m² | - |
| 1777502216 | 21.11° C | 41% | 1020 hPa | 0 mm | - | 654 W/m² | - |
| 1777501914 | 20.56° C | 44% | 1020.1 hPa | 0 mm | - | 667 W/m² | - |
| 1777501611 | 20.56° C | 42% | 1020.3 hPa | 0 mm | - | 678 W/m² | - |
| 1777501307 | 20.56° C | 43% | 1020.4 hPa | 0 mm | - | 686 W/m² | - |
| 1777501005 | 21.11° C | 43% | 1020.3 hPa | 0 mm | - | 698 W/m² | - |
| 1777500703 | 21.11° C | 42% | 1020.4 hPa | 0 mm | - | 707 W/m² | - |
| 1777500399 | 20° C | 44% | 1020.5 hPa | 0 mm | - | 717 W/m² | - |
* Rain latest hour (hover to see other rain measurements)
** Current wind speed in m/s (hover to see current wind gust speed)